sensor_id;sensor_type;location;lat;lon;timestamp;P1;durP1;ratioP1;P2;durP2;ratioP2
31210;SDS011;17836;50.948;3.946;2023-01-08T00:01:47;2.30;;;1.63;;
31210;SDS011;17836;50.948;3.946;2023-01-08T00:04:13;4.43;;;2.08;;
31210;SDS011;17836;50.948;3.946;2023-01-08T00:06:38;2.58;;;1.33;;
31210;SDS011;17836;50.948;3.946;2023-01-08T00:09:04;1.38;;;1.08;;
31210;SDS011;17836;50.948;3.946;2023-01-08T00:11:29;1.33;;;1.00;;
31210;SDS011;17836;50.948;3.946;2023-01-08T00:13:54;4.00;;;1.00;;
31210;SDS011;17836;50.948;3.946;2023-01-08T00:16:20;1.80;;;0.80;;
31210;SDS011;17836;50.948;3.946;2023-01-08T00:18:46;1.88;;;1.02;;
31210;SDS011;17836;50.948;3.946;2023-01-08T00:21:11;3.83;;;1.05;;
31210;SDS011;17836;50.948;3.946;2023-01-08T00:23:37;1.52;;;0.60;;
31210;SDS011;17836;50.948;3.946;2023-01-08T00:26:03;2.63;;;0.80;;
31210;SDS011;17836;50.948;3.946;2023-01-08T00:28:29;2.83;;;0.80;;
31210;SDS011;17836;50.948;3.946;2023-01-08T00:30:54;1.85;;;0.55;;
31210;SDS011;17836;50.948;3.946;2023-01-08T00:33:20;3.03;;;0.70;;
31210;SDS011;17836;50.948;3.946;2023-01-08T00:35:45;3.42;;;0.80;;
31210;SDS011;17836;50.948;3.946;2023-01-08T00:38:10;2.23;;;0.90;;
31210;SDS011;17836;50.948;3.946;2023-01-08T00:40:35;2.15;;;0.70;;
31210;SDS011;17836;50.948;3.946;2023-01-08T00:43:01;1.48;;;0.50;;
31210;SDS011;17836;50.948;3.946;2023-01-08T00:45:27;1.88;;;0.60;;
31210;SDS011;17836;50.948;3.946;2023-01-08T00:47:54;3.67;;;0.95;;
31210;SDS011;17836;50.948;3.946;2023-01-08T00:50:19;4.00;;;1.00;;
31210;SDS011;17836;50.948;3.946;2023-01-08T00:52:45;2.25;;;0.75;;
31210;SDS011;17836;50.948;3.946;2023-01-08T00:55:12;3.70;;;1.20;;
31210;SDS011;17836;50.948;3.946;2023-01-08T00:57:38;2.90;;;0.70;;
31210;SDS011;17836;50.948;3.946;2023-01-08T01:00:04;3.55;;;0.70;;
31210;SDS011;17836;50.948;3.946;2023-01-08T01:02:30;2.13;;;0.63;;
31210;SDS011;17836;50.948;3.946;2023-01-08T01:04:55;2.88;;;0.60;;
31210;SDS011;17836;50.948;3.946;2023-01-08T01:07:21;3.70;;;0.93;;
31210;SDS011;17836;50.948;3.946;2023-01-08T01:09:47;4.38;;;0.93;;
31210;SDS011;17836;50.948;3.946;2023-01-08T01:12:12;2.17;;;0.70;;
31210;SDS011;17836;50.948;3.946;2023-01-08T01:14:37;2.15;;;1.17;;
31210;SDS011;17836;50.948;3.946;2023-01-08T01:17:03;0.65;;;0.40;;
31210;SDS011;17836;50.948;3.946;2023-01-08T01:19:28;3.13;;;0.80;;
31210;SDS011;17836;50.948;3.946;2023-01-08T01:21:54;3.13;;;0.80;;
31210;SDS011;17836;50.948;3.946;2023-01-08T01:24:19;3.50;;;0.98;;
31210;SDS011;17836;50.948;3.946;2023-01-08T01:26:47;4.18;;;0.93;;
31210;SDS011;17836;50.948;3.946;2023-01-08T01:29:12;4.37;;;0.87;;
31210;SDS011;17836;50.948;3.946;2023-01-08T01:31:38;1.27;;;0.67;;
31210;SDS011;17836;50.948;3.946;2023-01-08T01:34:03;1.83;;;1.10;;
31210;SDS011;17836;50.948;3.946;2023-01-08T01:36:28;5.32;;;0.90;;
31210;SDS011;17836;50.948;3.946;2023-01-08T01:38:55;3.13;;;0.93;;
31210;SDS011;17836;50.948;3.946;2023-01-08T01:41:27;2.78;;;0.73;;
31210;SDS011;17836;50.948;3.946;2023-01-08T01:43:54;6.03;;;1.10;;
31210;SDS011;17836;50.948;3.946;2023-01-08T01:46:25;2.78;;;1.13;;
31210;SDS011;17836;50.948;3.946;2023-01-08T01:48:53;4.68;;;1.55;;
31210;SDS011;17836;50.948;3.946;2023-01-08T01:51:19;2.78;;;1.00;;
31210;SDS011;17836;50.948;3.946;2023-01-08T01:53:44;4.45;;;0.90;;
31210;SDS011;17836;50.948;3.946;2023-01-08T01:56:10;4.55;;;1.52;;
31210;SDS011;17836;50.948;3.946;2023-01-08T01:58:35;4.18;;;0.98;;
31210;SDS011;17836;50.948;3.946;2023-01-08T02:01:02;3.08;;;1.13;;
31210;SDS011;17836;50.948;3.946;2023-01-08T02:03:29;3.67;;;1.50;;
31210;SDS011;17836;50.948;3.946;2023-01-08T02:08:29;2.70;;;1.23;;
31210;SDS011;17836;50.948;3.946;2023-01-08T02:10:57;2.80;;;1.00;;
31210;SDS011;17836;50.948;3.946;2023-01-08T02:13:28;2.78;;;1.42;;
31210;SDS011;17836;50.948;3.946;2023-01-08T02:16:00;3.33;;;1.50;;
31210;SDS011;17836;50.948;3.946;2023-01-08T02:18:28;7.10;;;2.22;;
31210;SDS011;17836;50.948;3.946;2023-01-08T02:21:02;3.00;;;1.67;;
31210;SDS011;17836;50.948;3.946;2023-01-08T02:26:04;2.75;;;1.50;;
31210;SDS011;17836;50.948;3.946;2023-01-08T02:28:36;3.90;;;2.03;;
31210;SDS011;17836;50.948;3.946;2023-01-08T02:31:02;4.13;;;1.20;;
31210;SDS011;17836;50.948;3.946;2023-01-08T02:33:28;4.28;;;1.58;;
31210;SDS011;17836;50.948;3.946;2023-01-08T02:36:10;3.60;;;2.00;;
31210;SDS011;17836;50.948;3.946;2023-01-08T02:38:41;3.60;;;1.98;;
31210;SDS011;17836;50.948;3.946;2023-01-08T02:41:09;3.25;;;2.03;;
31210;SDS011;17836;50.948;3.946;2023-01-08T02:43:44;6.65;;;1.90;;
31210;SDS011;17836;50.948;3.946;2023-01-08T02:46:16;3.42;;;1.55;;
31210;SDS011;17836;50.948;3.946;2023-01-08T02:48:50;6.05;;;1.95;;
31210;SDS011;17836;50.948;3.946;2023-01-08T02:51:20;5.55;;;1.73;;
31210;SDS011;17836;50.948;3.946;2023-01-08T02:53:49;3.28;;;1.40;;
31210;SDS011;17836;50.948;3.946;2023-01-08T02:56:17;5.18;;;2.03;;
31210;SDS011;17836;50.948;3.946;2023-01-08T02:58:43;2.42;;;1.38;;
31210;SDS011;17836;50.948;3.946;2023-01-08T03:01:10;5.57;;;1.48;;
31210;SDS011;17836;50.948;3.946;2023-01-08T03:03:37;3.70;;;1.75;;
31210;SDS011;17836;50.948;3.946;2023-01-08T03:06:07;4.10;;;1.52;;
31210;SDS011;17836;50.948;3.946;2023-01-08T03:08:35;3.88;;;1.00;;
31210;SDS011;17836;50.948;3.946;2023-01-08T03:11:03;5.20;;;1.88;;
31210;SDS011;17836;50.948;3.946;2023-01-08T03:13:36;3.65;;;0.90;;
31210;SDS011;17836;50.948;3.946;2023-01-08T03:16:02;2.78;;;1.05;;
31210;SDS011;17836;50.948;3.946;2023-01-08T03:18:30;2.88;;;0.80;;
31210;SDS011;17836;50.948;3.946;2023-01-08T03:20:58;2.25;;;0.82;;
31210;SDS011;17836;50.948;3.946;2023-01-08T03:23:24;5.65;;;1.45;;
31210;SDS011;17836;50.948;3.946;2023-01-08T03:25:50;3.03;;;1.58;;
31210;SDS011;17836;50.948;3.946;2023-01-08T03:28:20;3.20;;;0.87;;
31210;SDS011;17836;50.948;3.946;2023-01-08T03:30:49;2.85;;;0.90;;
31210;SDS011;17836;50.948;3.946;2023-01-08T03:33:16;1.65;;;0.65;;
31210;SDS011;17836;50.948;3.946;2023-01-08T03:35:45;1.17;;;0.63;;
31210;SDS011;17836;50.948;3.946;2023-01-08T03:38:14;1.83;;;0.90;;
31210;SDS011;17836;50.948;3.946;2023-01-08T03:40:41;2.17;;;1.13;;
31210;SDS011;17836;50.948;3.946;2023-01-08T03:43:07;4.43;;;1.70;;
31210;SDS011;17836;50.948;3.946;2023-01-08T03:45:33;3.15;;;0.75;;
31210;SDS011;17836;50.948;3.946;2023-01-08T03:48:01;2.08;;;0.80;;
31210;SDS011;17836;50.948;3.946;2023-01-08T03:50:27;2.95;;;0.80;;
31210;SDS011;17836;50.948;3.946;2023-01-08T03:52:53;3.33;;;0.80;;
31210;SDS011;17836;50.948;3.946;2023-01-08T03:55:18;4.30;;;0.85;;
31210;SDS011;17836;50.948;3.946;2023-01-08T03:57:44;2.83;;;1.45;;
31210;SDS011;17836;50.948;3.946;2023-01-08T04:00:09;1.67;;;0.77;;
31210;SDS011;17836;50.948;3.946;2023-01-08T04:02:35;2.72;;;0.90;;
31210;SDS011;17836;50.948;3.946;2023-01-08T04:05:00;2.53;;;1.00;;
31210;SDS011;17836;50.948;3.946;2023-01-08T04:07:25;3.95;;;1.08;;
31210;SDS011;17836;50.948;3.946;2023-01-08T04:09:51;7.00;;;1.70;;
31210;SDS011;17836;50.948;3.946;2023-01-08T04:12:16;8.13;;;1.10;;
31210;SDS011;17836;50.948;3.946;2023-01-08T04:14:42;6.95;;;1.40;;
31210;SDS011;17836;50.948;3.946;2023-01-08T04:17:10;5.80;;;1.10;;
31210;SDS011;17836;50.948;3.946;2023-01-08T04:19:35;3.67;;;1.02;;
31210;SDS011;17836;50.948;3.946;2023-01-08T04:22:00;2.72;;;0.73;;
31210;SDS011;17836;50.948;3.946;2023-01-08T04:24:25;4.07;;;0.85;;
31210;SDS011;17836;50.948;3.946;2023-01-08T04:26:51;2.17;;;0.80;;
31210;SDS011;17836;50.948;3.946;2023-01-08T04:29:16;5.00;;;1.10;;
31210;SDS011;17836;50.948;3.946;2023-01-08T04:31:41;4.93;;;1.00;;
31210;SDS011;17836;50.948;3.946;2023-01-08T04:34:06;2.88;;;0.80;;
31210;SDS011;17836;50.948;3.946;2023-01-08T04:36:32;6.47;;;1.30;;
31210;SDS011;17836;50.948;3.946;2023-01-08T04:38:58;6.07;;;1.10;;
31210;SDS011;17836;50.948;3.946;2023-01-08T04:41:23;6.50;;;1.10;;
31210;SDS011;17836;50.948;3.946;2023-01-08T04:43:49;5.28;;;1.00;;
31210;SDS011;17836;50.948;3.946;2023-01-08T04:46:14;6.68;;;1.00;;
31210;SDS011;17836;50.948;3.946;2023-01-08T04:48:41;6.78;;;1.30;;
31210;SDS011;17836;50.948;3.946;2023-01-08T04:51:08;4.55;;;1.92;;
31210;SDS011;17836;50.948;3.946;2023-01-08T04:53:34;10.57;;;1.48;;
31210;SDS011;17836;50.948;3.946;2023-01-08T04:56:03;6.38;;;1.02;;
31210;SDS011;17836;50.948;3.946;2023-01-08T04:58:29;5.35;;;1.52;;
31210;SDS011;17836;50.948;3.946;2023-01-08T05:00:55;4.18;;;1.13;;
31210;SDS011;17836;50.948;3.946;2023-01-08T05:03:20;5.53;;;1.20;;
31210;SDS011;17836;50.948;3.946;2023-01-08T05:05:46;8.40;;;1.48;;
31210;SDS011;17836;50.948;3.946;2023-01-08T05:08:11;8.27;;;1.63;;
31210;SDS011;17836;50.948;3.946;2023-01-08T05:10:37;8.55;;;1.48;;
31210;SDS011;17836;50.948;3.946;2023-01-08T05:13:02;10.20;;;1.83;;
31210;SDS011;17836;50.948;3.946;2023-01-08T05:15:28;6.10;;;1.50;;
31210;SDS011;17836;50.948;3.946;2023-01-08T05:17:59;4.17;;;1.47;;
31210;SDS011;17836;50.948;3.946;2023-01-08T05:20:25;4.40;;;0.93;;
31210;SDS011;17836;50.948;3.946;2023-01-08T05:22:50;8.68;;;1.20;;
31210;SDS011;17836;50.948;3.946;2023-01-08T05:25:15;8.87;;;1.80;;
31210;SDS011;17836;50.948;3.946;2023-01-08T05:27:41;8.32;;;1.48;;
31210;SDS011;17836;50.948;3.946;2023-01-08T05:30:06;9.67;;;1.67;;
31210;SDS011;17836;50.948;3.946;2023-01-08T05:32:32;5.25;;;1.40;;
31210;SDS011;17836;50.948;3.946;2023-01-08T05:34:57;7.20;;;1.27;;
31210;SDS011;17836;50.948;3.946;2023-01-08T05:37:22;10.03;;;1.80;;
31210;SDS011;17836;50.948;3.946;2023-01-08T05:39:47;7.23;;;1.33;;
31210;SDS011;17836;50.948;3.946;2023-01-08T05:42:13;5.22;;;1.40;;
31210;SDS011;17836;50.948;3.946;2023-01-08T05:44:39;10.07;;;1.30;;
31210;SDS011;17836;50.948;3.946;2023-01-08T05:47:04;4.90;;;1.40;;
31210;SDS011;17836;50.948;3.946;2023-01-08T05:49:29;5.47;;;1.17;;
31210;SDS011;17836;50.948;3.946;2023-01-08T05:51:55;8.95;;;1.40;;
31210;SDS011;17836;50.948;3.946;2023-01-08T05:54:20;8.50;;;1.25;;
31210;SDS011;17836;50.948;3.946;2023-01-08T05:56:45;5.60;;;1.10;;
31210;SDS011;17836;50.948;3.946;2023-01-08T05:59:11;10.82;;;1.80;;
31210;SDS011;17836;50.948;3.946;2023-01-08T06:01:36;5.05;;;1.13;;
31210;SDS011;17836;50.948;3.946;2023-01-08T06:04:02;6.20;;;1.63;;
31210;SDS011;17836;50.948;3.946;2023-01-08T06:06:27;6.85;;;1.33;;
31210;SDS011;17836;50.948;3.946;2023-01-08T06:08:52;5.47;;;1.23;;
31210;SDS011;17836;50.948;3.946;2023-01-08T06:11:17;10.20;;;2.35;;
31210;SDS011;17836;50.948;3.946;2023-01-08T06:13:43;3.17;;;1.30;;
31210;SDS011;17836;50.948;3.946;2023-01-08T06:16:09;9.48;;;1.63;;
31210;SDS011;17836;50.948;3.946;2023-01-08T06:18:34;5.68;;;1.00;;
31210;SDS011;17836;50.948;3.946;2023-01-08T06:21:02;9.90;;;1.50;;
31210;SDS011;17836;50.948;3.946;2023-01-08T06:23:29;4.20;;;0.98;;
31210;SDS011;17836;50.948;3.946;2023-01-08T06:25:58;9.98;;;1.65;;
31210;SDS011;17836;50.948;3.946;2023-01-08T06:28:23;11.30;;;2.13;;
31210;SDS011;17836;50.948;3.946;2023-01-08T06:30:49;10.07;;;1.80;;
31210;SDS011;17836;50.948;3.946;2023-01-08T06:33:15;6.57;;;1.70;;
31210;SDS011;17836;50.948;3.946;2023-01-08T06:35:40;11.77;;;2.55;;
31210;SDS011;17836;50.948;3.946;2023-01-08T06:38:06;19.40;;;7.97;;
31210;SDS011;17836;50.948;3.946;2023-01-08T06:40:32;6.70;;;3.05;;
31210;SDS011;17836;50.948;3.946;2023-01-08T06:43:00;13.47;;;2.77;;
31210;SDS011;17836;50.948;3.946;2023-01-08T06:45:26;7.68;;;2.03;;
31210;SDS011;17836;50.948;3.946;2023-01-08T06:47:51;5.90;;;2.00;;
31210;SDS011;17836;50.948;3.946;2023-01-08T06:50:16;8.80;;;2.43;;
31210;SDS011;17836;50.948;3.946;2023-01-08T06:52:42;8.77;;;1.40;;
31210;SDS011;17836;50.948;3.946;2023-01-08T06:55:07;10.50;;;2.35;;
31210;SDS011;17836;50.948;3.946;2023-01-08T06:57:33;7.03;;;1.63;;
31210;SDS011;17836;50.948;3.946;2023-01-08T06:59:58;12.55;;;1.92;;
31210;SDS011;17836;50.948;3.946;2023-01-08T07:02:23;7.32;;;1.52;;
31210;SDS011;17836;50.948;3.946;2023-01-08T07:04:49;5.28;;;1.48;;
31210;SDS011;17836;50.948;3.946;2023-01-08T07:07:15;7.82;;;1.95;;
31210;SDS011;17836;50.948;3.946;2023-01-08T07:09:41;7.35;;;1.98;;
31210;SDS011;17836;50.948;3.946;2023-01-08T07:12:10;8.37;;;1.40;;
31210;SDS011;17836;50.948;3.946;2023-01-08T07:14:38;6.18;;;1.50;;
31210;SDS011;17836;50.948;3.946;2023-01-08T07:17:03;8.77;;;1.48;;
31210;SDS011;17836;50.948;3.946;2023-01-08T07:19:29;10.90;;;2.30;;
31210;SDS011;17836;50.948;3.946;2023-01-08T07:21:55;6.63;;;1.42;;
31210;SDS011;17836;50.948;3.946;2023-01-08T07:24:20;9.13;;;1.85;;
31210;SDS011;17836;50.948;3.946;2023-01-08T07:26:46;12.33;;;1.73;;
31210;SDS011;17836;50.948;3.946;2023-01-08T07:29:11;9.57;;;1.98;;
31210;SDS011;17836;50.948;3.946;2023-01-08T07:31:37;6.82;;;1.60;;
31210;SDS011;17836;50.948;3.946;2023-01-08T07:34:02;8.18;;;1.88;;
31210;SDS011;17836;50.948;3.946;2023-01-08T07:36:28;12.60;;;2.10;;
31210;SDS011;17836;50.948;3.946;2023-01-08T07:38:53;8.10;;;2.47;;
31210;SDS011;17836;50.948;3.946;2023-01-08T07:41:19;8.13;;;1.58;;
31210;SDS011;17836;50.948;3.946;2023-01-08T07:43:47;8.63;;;1.98;;
31210;SDS011;17836;50.948;3.946;2023-01-08T07:46:13;6.07;;;1.27;;
31210;SDS011;17836;50.948;3.946;2023-01-08T07:48:39;7.40;;;2.55;;
31210;SDS011;17836;50.948;3.946;2023-01-08T07:51:05;9.48;;;1.55;;
31210;SDS011;17836;50.948;3.946;2023-01-08T07:53:31;7.45;;;1.55;;
31210;SDS011;17836;50.948;3.946;2023-01-08T07:56:01;9.32;;;2.20;;
31210;SDS011;17836;50.948;3.946;2023-01-08T07:58:27;8.23;;;3.05;;
31210;SDS011;17836;50.948;3.946;2023-01-08T08:00:53;7.32;;;2.35;;
31210;SDS011;17836;50.948;3.946;2023-01-08T08:03:19;8.07;;;2.60;;
31210;SDS011;17836;50.948;3.946;2023-01-08T08:05:44;7.05;;;1.77;;
31210;SDS011;17836;50.948;3.946;2023-01-08T08:08:10;6.72;;;2.03;;
31210;SDS011;17836;50.948;3.946;2023-01-08T08:10:37;7.88;;;1.75;;
31210;SDS011;17836;50.948;3.946;2023-01-08T08:13:02;5.47;;;2.30;;
31210;SDS011;17836;50.948;3.946;2023-01-08T08:15:27;6.97;;;1.80;;
31210;SDS011;17836;50.948;3.946;2023-01-08T08:17:53;5.37;;;1.80;;
31210;SDS011;17836;50.948;3.946;2023-01-08T08:20:18;12.83;;;5.27;;
31210;SDS011;17836;50.948;3.946;2023-01-08T08:22:44;9.32;;;3.13;;
31210;SDS011;17836;50.948;3.946;2023-01-08T08:25:09;6.03;;;2.45;;
31210;SDS011;17836;50.948;3.946;2023-01-08T08:27:35;7.28;;;2.28;;
31210;SDS011;17836;50.948;3.946;2023-01-08T08:30:01;5.13;;;2.08;;
31210;SDS011;17836;50.948;3.946;2023-01-08T08:32:27;8.30;;;2.22;;
31210;SDS011;17836;50.948;3.946;2023-01-08T08:34:52;5.53;;;1.90;;
31210;SDS011;17836;50.948;3.946;2023-01-08T08:37:17;9.13;;;2.25;;
31210;SDS011;17836;50.948;3.946;2023-01-08T08:39:43;7.50;;;2.40;;
31210;SDS011;17836;50.948;3.946;2023-01-08T08:42:09;7.65;;;2.63;;
31210;SDS011;17836;50.948;3.946;2023-01-08T08:44:34;7.40;;;3.45;;
31210;SDS011;17836;50.948;3.946;2023-01-08T08:46:59;7.33;;;4.40;;
31210;SDS011;17836;50.948;3.946;2023-01-08T08:49:25;7.63;;;3.47;;
31210;SDS011;17836;50.948;3.946;2023-01-08T08:51:51;8.32;;;4.32;;
31210;SDS011;17836;50.948;3.946;2023-01-08T08:54:17;6.88;;;2.63;;
31210;SDS011;17836;50.948;3.946;2023-01-08T08:56:42;5.22;;;1.70;;
31210;SDS011;17836;50.948;3.946;2023-01-08T08:59:08;4.90;;;2.00;;
31210;SDS011;17836;50.948;3.946;2023-01-08T09:01:35;4.68;;;1.30;;
31210;SDS011;17836;50.948;3.946;2023-01-08T09:04:01;1.77;;;1.37;;
31210;SDS011;17836;50.948;3.946;2023-01-08T09:06:26;4.10;;;1.25;;
31210;SDS011;17836;50.948;3.946;2023-01-08T09:08:52;3.08;;;1.30;;
31210;SDS011;17836;50.948;3.946;2023-01-08T09:11:19;2.22;;;1.00;;
31210;SDS011;17836;50.948;3.946;2023-01-08T09:13:44;3.80;;;1.45;;
31210;SDS011;17836;50.948;3.946;2023-01-08T09:16:10;5.73;;;1.40;;
31210;SDS011;17836;50.948;3.946;2023-01-08T09:18:35;2.72;;;1.35;;
31210;SDS011;17836;50.948;3.946;2023-01-08T09:21:05;4.20;;;1.13;;
31210;SDS011;17836;50.948;3.946;2023-01-08T09:23:30;3.95;;;1.33;;
31210;SDS011;17836;50.948;3.946;2023-01-08T09:26:00;1.33;;;1.20;;
31210;SDS011;17836;50.948;3.946;2023-01-08T09:28:25;3.35;;;1.00;;
31210;SDS011;17836;50.948;3.946;2023-01-08T09:30:50;2.20;;;0.90;;
31210;SDS011;17836;50.948;3.946;2023-01-08T09:33:16;2.05;;;0.80;;
31210;SDS011;17836;50.948;3.946;2023-01-08T09:35:42;2.65;;;0.70;;
31210;SDS011;17836;50.948;3.946;2023-01-08T09:38:07;3.13;;;0.82;;
31210;SDS011;17836;50.948;3.946;2023-01-08T09:40:49;5.17;;;2.20;;
31210;SDS011;17836;50.948;3.946;2023-01-08T09:43:19;2.55;;;0.88;;
31210;SDS011;17836;50.948;3.946;2023-01-08T09:45:55;1.93;;;0.80;;
31210;SDS011;17836;50.948;3.946;2023-01-08T09:48:23;2.17;;;0.90;;
31210;SDS011;17836;50.948;3.946;2023-01-08T09:50:49;1.75;;;0.75;;
31210;SDS011;17836;50.948;3.946;2023-01-08T09:53:15;4.10;;;1.05;;
31210;SDS011;17836;50.948;3.946;2023-01-08T09:55:41;3.22;;;1.23;;
31210;SDS011;17836;50.948;3.946;2023-01-08T10:00:48;2.15;;;1.00;;
31210;SDS011;17836;50.948;3.946;2023-01-08T10:03:13;4.25;;;1.38;;
31210;SDS011;17836;50.948;3.946;2023-01-08T10:05:39;5.32;;;1.10;;
31210;SDS011;17836;50.948;3.946;2023-01-08T10:08:08;1.08;;;0.60;;
31210;SDS011;17836;50.948;3.946;2023-01-08T10:10:34;1.35;;;0.93;;
31210;SDS011;17836;50.948;3.946;2023-01-08T10:13:00;4.85;;;0.80;;
31210;SDS011;17836;50.948;3.946;2023-01-08T10:15:27;1.83;;;1.13;;
31210;SDS011;17836;50.948;3.946;2023-01-08T10:20:18;3.00;;;0.67;;
31210;SDS011;17836;50.948;3.946;2023-01-08T10:22:45;6.93;;;1.35;;
31210;SDS011;17836;50.948;3.946;2023-01-08T10:25:18;3.65;;;0.77;;
31210;SDS011;17836;50.948;3.946;2023-01-08T10:27:45;4.43;;;1.00;;
31210;SDS011;17836;50.948;3.946;2023-01-08T10:30:14;5.35;;;0.93;;
31210;SDS011;17836;50.948;3.946;2023-01-08T10:32:44;2.08;;;0.70;;
31210;SDS011;17836;50.948;3.946;2023-01-08T10:35:15;1.90;;;0.80;;
31210;SDS011;17836;50.948;3.946;2023-01-08T10:40:25;2.17;;;0.70;;
31210;SDS011;17836;50.948;3.946;2023-01-08T10:42:51;2.50;;;0.80;;
31210;SDS011;17836;50.948;3.946;2023-01-08T10:45:19;4.47;;;0.88;;
31210;SDS011;17836;50.948;3.946;2023-01-08T10:47:46;4.72;;;1.00;;
31210;SDS011;17836;50.948;3.946;2023-01-08T10:50:21;2.50;;;0.75;;
31210;SDS011;17836;50.948;3.946;2023-01-08T10:52:51;2.38;;;0.60;;
31210;SDS011;17836;50.948;3.946;2023-01-08T10:57:42;3.73;;;0.90;;
31210;SDS011;17836;50.948;3.946;2023-01-08T11:00:21;2.80;;;0.80;;
31210;SDS011;17836;50.948;3.946;2023-01-08T11:02:46;2.90;;;0.98;;
31210;SDS011;17836;50.948;3.946;2023-01-08T11:05:14;4.22;;;1.00;;
31210;SDS011;17836;50.948;3.946;2023-01-08T11:07:39;4.97;;;1.48;;
31210;SDS011;17836;50.948;3.946;2023-01-08T11:10:05;3.17;;;1.20;;
31210;SDS011;17836;50.948;3.946;2023-01-08T11:12:38;2.58;;;0.98;;
31210;SDS011;17836;50.948;3.946;2023-01-08T11:15:05;3.33;;;0.70;;
31210;SDS011;17836;50.948;3.946;2023-01-08T11:17:31;4.45;;;1.00;;
31210;SDS011;17836;50.948;3.946;2023-01-08T11:20:39;3.83;;;0.90;;
31210;SDS011;17836;50.948;3.946;2023-01-08T11:22:45;4.78;;;1.23;;
31210;SDS011;17836;50.948;3.946;2023-01-08T11:25:12;4.43;;;1.50;;
31210;SDS011;17836;50.948;3.946;2023-01-08T11:27:39;5.97;;;1.23;;
31210;SDS011;17836;50.948;3.946;2023-01-08T11:30:09;4.40;;;1.13;;
31210;SDS011;17836;50.948;3.946;2023-01-08T11:35:03;4.55;;;0.90;;
31210;SDS011;17836;50.948;3.946;2023-01-08T11:39:57;2.77;;;0.80;;
31210;SDS011;17836;50.948;3.946;2023-01-08T11:45:10;6.68;;;1.27;;
31210;SDS011;17836;50.948;3.946;2023-01-08T11:50:21;5.00;;;1.00;;
31210;SDS011;17836;50.948;3.946;2023-01-08T12:03:54;3.75;;;1.75;;
31210;SDS011;17836;50.948;3.946;2023-01-08T12:06:27;4.25;;;0.95;;
31210;SDS011;17836;50.948;3.946;2023-01-08T12:11:43;3.03;;;1.23;;
31210;SDS011;17836;50.948;3.946;2023-01-08T12:24:14;4.38;;;1.08;;
31210;SDS011;17836;50.948;3.946;2023-01-08T12:29:12;6.22;;;1.33;;
31210;SDS011;17836;50.948;3.946;2023-01-08T12:34:18;5.50;;;1.45;;
31210;SDS011;17836;50.948;3.946;2023-01-08T12:36:45;3.70;;;0.90;;
31210;SDS011;17836;50.948;3.946;2023-01-08T12:39:13;5.90;;;1.25;;
31210;SDS011;17836;50.948;3.946;2023-01-08T12:41:40;4.18;;;1.00;;
31210;SDS011;17836;50.948;3.946;2023-01-08T12:44:09;5.45;;;1.30;;
31210;SDS011;17836;50.948;3.946;2023-01-08T12:46:37;7.57;;;1.30;;
31210;SDS011;17836;50.948;3.946;2023-01-08T12:49:03;5.32;;;2.40;;
31210;SDS011;17836;50.948;3.946;2023-01-08T12:53:57;5.70;;;1.20;;
31210;SDS011;17836;50.948;3.946;2023-01-08T13:01:40;4.88;;;1.30;;
31210;SDS011;17836;50.948;3.946;2023-01-08T13:04:08;4.63;;;1.20;;
31210;SDS011;17836;50.948;3.946;2023-01-08T13:06:33;6.18;;;1.30;;
31210;SDS011;17836;50.948;3.946;2023-01-08T13:08:59;3.22;;;0.95;;
31210;SDS011;17836;50.948;3.946;2023-01-08T13:11:31;3.80;;;0.95;;
31210;SDS011;17836;50.948;3.946;2023-01-08T13:14:08;4.90;;;1.00;;
31210;SDS011;17836;50.948;3.946;2023-01-08T13:16:36;7.90;;;1.48;;
31210;SDS011;17836;50.948;3.946;2023-01-08T13:19:03;8.90;;;1.05;;
31210;SDS011;17836;50.948;3.946;2023-01-08T13:21:29;2.47;;;1.15;;
31210;SDS011;17836;50.948;3.946;2023-01-08T13:23:58;3.60;;;0.95;;
31210;SDS011;17836;50.948;3.946;2023-01-08T13:26:27;3.15;;;1.05;;
31210;SDS011;17836;50.948;3.946;2023-01-08T13:28:53;5.75;;;1.40;;
31210;SDS011;17836;50.948;3.946;2023-01-08T13:33:44;4.00;;;1.57;;
31210;SDS011;17836;50.948;3.946;2023-01-08T13:38:37;10.38;;;2.03;;
31210;SDS011;17836;50.948;3.946;2023-01-08T13:41:03;6.97;;;1.15;;
31210;SDS011;17836;50.948;3.946;2023-01-08T13:43:35;5.07;;;1.10;;
31210;SDS011;17836;50.948;3.946;2023-01-08T13:48:35;8.02;;;2.97;;
31210;SDS011;17836;50.948;3.946;2023-01-08T13:51:01;9.68;;;1.70;;
31210;SDS011;17836;50.948;3.946;2023-01-08T13:53:26;7.97;;;1.85;;
31210;SDS011;17836;50.948;3.946;2023-01-08T13:55:54;5.75;;;1.75;;
31210;SDS011;17836;50.948;3.946;2023-01-08T13:58:23;3.70;;;1.13;;
31210;SDS011;17836;50.948;3.946;2023-01-08T14:00:49;5.85;;;1.10;;
31210;SDS011;17836;50.948;3.946;2023-01-08T14:03:26;3.63;;;1.20;;
31210;SDS011;17836;50.948;3.946;2023-01-08T14:05:52;5.18;;;1.13;;
31210;SDS011;17836;50.948;3.946;2023-01-08T14:08:28;8.68;;;2.17;;
31210;SDS011;17836;50.948;3.946;2023-01-08T14:10:54;5.13;;;1.30;;
31210;SDS011;17836;50.948;3.946;2023-01-08T14:13:21;4.00;;;1.08;;
31210;SDS011;17836;50.948;3.946;2023-01-08T14:15:48;8.63;;;1.20;;
31210;SDS011;17836;50.948;3.946;2023-01-08T14:18:13;9.20;;;1.63;;
31210;SDS011;17836;50.948;3.946;2023-01-08T14:20:39;5.90;;;1.10;;
31210;SDS011;17836;50.948;3.946;2023-01-08T14:23:09;4.97;;;1.45;;
31210;SDS011;17836;50.948;3.946;2023-01-08T14:25:35;3.85;;;1.10;;
31210;SDS011;17836;50.948;3.946;2023-01-08T14:28:02;6.05;;;1.98;;
31210;SDS011;17836;50.948;3.946;2023-01-08T14:30:29;5.07;;;1.98;;
31210;SDS011;17836;50.948;3.946;2023-01-08T14:32:55;4.80;;;1.40;;
31210;SDS011;17836;50.948;3.946;2023-01-08T14:35:27;4.05;;;1.40;;
31210;SDS011;17836;50.948;3.946;2023-01-08T14:37:55;9.80;;;1.35;;
31210;SDS011;17836;50.948;3.946;2023-01-08T14:40:37;8.70;;;2.70;;
31210;SDS011;17836;50.948;3.946;2023-01-08T14:43:13;7.05;;;1.35;;
31210;SDS011;17836;50.948;3.946;2023-01-08T14:45:47;5.82;;;1.58;;
31210;SDS011;17836;50.948;3.946;2023-01-08T14:50:41;8.48;;;1.45;;
31210;SDS011;17836;50.948;3.946;2023-01-08T14:53:18;9.48;;;2.35;;
31210;SDS011;17836;50.948;3.946;2023-01-08T14:55:46;6.32;;;1.75;;
31210;SDS011;17836;50.948;3.946;2023-01-08T14:58:17;5.45;;;1.80;;
31210;SDS011;17836;50.948;3.946;2023-01-08T15:00:45;5.85;;;1.75;;
31210;SDS011;17836;50.948;3.946;2023-01-08T15:05:57;3.15;;;1.42;;
31210;SDS011;17836;50.948;3.946;2023-01-08T15:11:04;3.70;;;1.30;;
31210;SDS011;17836;50.948;3.946;2023-01-08T15:13:34;6.82;;;1.58;;
31210;SDS011;17836;50.948;3.946;2023-01-08T15:16:05;5.72;;;1.27;;
31210;SDS011;17836;50.948;3.946;2023-01-08T15:18:42;7.03;;;1.55;;
31210;SDS011;17836;50.948;3.946;2023-01-08T15:21:09;8.85;;;2.20;;
31210;SDS011;17836;50.948;3.946;2023-01-08T15:23:40;7.85;;;2.17;;
31210;SDS011;17836;50.948;3.946;2023-01-08T15:26:10;5.95;;;2.50;;
31210;SDS011;17836;50.948;3.946;2023-01-08T15:28:37;5.63;;;1.60;;
31210;SDS011;17836;50.948;3.946;2023-01-08T15:31:03;4.57;;;1.75;;
31210;SDS011;17836;50.948;3.946;2023-01-08T15:33:28;9.55;;;2.35;;
31210;SDS011;17836;50.948;3.946;2023-01-08T15:35:54;9.35;;;2.45;;
31210;SDS011;17836;50.948;3.946;2023-01-08T15:38:19;11.83;;;2.77;;
31210;SDS011;17836;50.948;3.946;2023-01-08T15:40:45;5.63;;;2.28;;
31210;SDS011;17836;50.948;3.946;2023-01-08T15:43:14;6.97;;;2.45;;
31210;SDS011;17836;50.948;3.946;2023-01-08T15:45:41;6.18;;;2.60;;
31210;SDS011;17836;50.948;3.946;2023-01-08T15:48:07;6.53;;;2.35;;
31210;SDS011;17836;50.948;3.946;2023-01-08T15:50:33;11.68;;;2.55;;
31210;SDS011;17836;50.948;3.946;2023-01-08T15:53:11;7.80;;;3.25;;
31210;SDS011;17836;50.948;3.946;2023-01-08T15:55:37;9.30;;;3.40;;
31210;SDS011;17836;50.948;3.946;2023-01-08T15:58:03;4.20;;;2.55;;
31210;SDS011;17836;50.948;3.946;2023-01-08T16:00:28;6.15;;;2.30;;
31210;SDS011;17836;50.948;3.946;2023-01-08T16:02:54;6.18;;;2.55;;
31210;SDS011;17836;50.948;3.946;2023-01-08T16:05:20;9.50;;;2.63;;